Time,TemperatureF,DewpointF,PressureIn,WindDirection,WindDirectionDegrees,WindSpeedMPH,WindSpeedGustMPH,Humidity,HourlyPrecipIn,Conditions,Clouds,dailyrainin,SoftwareType,DateUTC
2013-09-03 00:23:00,63.0,56.0,30.00,NNW,344,0.0,0.0,77,0.00,,,0.00,,2013-09-03 05:23:00,
2013-09-03 00:52:00,64.0,56.0,30.01,NE,37,0.0,4.0,76,0.00,,,0.00,,2013-09-03 05:52:00,
2013-09-03 01:12:00,64.0,56.0,30.01,North,11,0.0,0.0,76,0.00,,,0.00,,2013-09-03 06:12:00,
2013-09-03 01:22:00,63.0,56.0,30.01,ENE,77,0.0,0.0,77,0.00,,,0.00,,2013-09-03 06:22:00,
2013-09-03 01:52:00,62.0,55.0,30.01,NNE,17,0.0,0.0,79,0.00,,,0.00,,2013-09-03 06:52:00,
2013-09-03 02:12:00,62.0,56.0,30.01,NE,55,0.0,1.0,80,0.00,,,0.00,,2013-09-03 07:12:00,
2013-09-03 02:22:00,61.0,55.0,30.01,NNE,28,0.0,0.0,82,0.00,,,0.00,,2013-09-03 07:22:00,
2013-09-03 02:53:00,61.0,56.0,30.02,NNE,26,0.0,5.0,83,0.00,,,0.00,,2013-09-03 07:53:00,
2013-09-03 03:11:00,61.0,56.0,30.02,NE,34,0.0,1.0,83,0.00,,,0.00,,2013-09-03 08:11:00,
2013-09-03 03:22:00,60.0,55.0,30.03,NE,34,0.0,1.0,84,0.00,,,0.00,,2013-09-03 08:22:00,
2013-09-03 03:52:00,60.0,56.0,30.03,NE,34,2.0,6.0,86,0.00,,,0.00,,2013-09-03 08:52:00,
2013-09-03 04:11:00,60.0,56.0,30.03,NNE,19,0.0,11.0,87,0.00,,,0.00,,2013-09-03 09:11:00,
2013-09-03 04:21:00,59.0,55.0,30.03,NNE,19,0.0,1.0,87,0.00,,,0.00,,2013-09-03 09:21:00,
2013-09-03 04:53:00,59.0,55.0,30.04,NNE,19,0.0,2.0,88,0.00,,,0.00,,2013-09-03 09:53:00,
2013-09-03 05:23:00,60.0,57.0,30.05,NNE,19,0.0,2.0,90,0.00,,,0.00,,2013-09-03 10:23:00,
2013-09-03 05:53:00,60.0,57.0,30.06,NNE,15,0.0,0.0,90,0.00,,,0.00,,2013-09-03 10:53:00,
2013-09-03 06:12:00,60.0,57.0,30.06,NNE,15,0.0,0.0,89,0.00,,,0.00,,2013-09-03 11:12:00,
2013-09-03 06:23:00,59.0,55.0,30.07,NNE,15,0.0,0.0,88,0.00,,,0.00,,2013-09-03 11:23:00,
2013-09-03 06:52:00,59.0,56.0,30.08,NNE,15,0.0,0.0,90,0.00,,,0.00,,2013-09-03 11:52:00,
2013-09-03 07:12:00,59.0,56.0,30.08,NNE,15,0.0,0.0,90,0.00,,,0.00,,2013-09-03 12:12:00,
2013-09-03 07:21:00,59.0,56.0,30.09,NNE,15,0.0,0.0,91,0.00,,,0.00,,2013-09-03 12:21:00,
2013-09-03 07:52:00,62.0,59.0,30.10,NNE,15,0.0,0.0,91,0.00,,,0.00,,2013-09-03 12:52:00,
2013-09-03 08:11:00,62.0,59.0,30.10,NNE,15,0.0,0.0,91,0.00,,,0.00,,2013-09-03 13:11:00,
2013-09-03 08:21:00,62.0,59.0,30.10,NNE,15,0.0,0.0,91,0.00,,,0.00,,2013-09-03 13:21:00,
2013-09-03 08:52:00,63.0,60.0,30.10,NNE,15,0.0,0.0,91,0.00,,,0.00,,2013-09-03 13:52:00,
2013-09-03 09:21:00,64.0,61.0,30.11,NE,36,0.0,0.0,90,0.00,,,0.00,,2013-09-03 14:21:00,
2013-09-03 09:52:00,67.0,60.0,30.10,SSW,198,0.0,1.0,79,0.00,,,0.00,,2013-09-03 14:52:00,
2013-09-03 10:22:00,69.0,60.0,30.11,South,184,0.0,2.0,72,0.00,,,0.00,,2013-09-03 15:22:00,
2013-09-03 10:54:00,72.0,60.0,30.11,SSW,196,0.0,0.0,65,0.00,,,0.00,,2013-09-03 15:54:00,
2013-09-03 11:14:00,74.0,57.0,30.11,South,180,0.0,2.0,56,0.00,,,0.00,,2013-09-03 16:14:00,
2013-09-03 11:24:00,76.0,56.0,30.12,South,169,0.0,6.0,50,0.00,,,0.00,,2013-09-03 16:24:00,
2013-09-03 11:54:00,77.0,56.0,30.12,North,355,0.0,5.0,49,0.00,,,0.00,,2013-09-03 16:54:00,
2013-09-03 12:23:00,80.0,55.0,30.12,South,189,0.0,4.0,42,0.00,,,0.00,,2013-09-03 17:23:00,
2013-09-03 12:52:00,79.0,58.0,30.11,SSE,155,0.0,4.0,48,0.00,,,0.00,,2013-09-03 17:52:00,
2013-09-03 13:22:00,80.0,54.0,30.10,South,179,0.0,5.0,41,0.00,,,0.00,,2013-09-03 18:22:00,
2013-09-03 13:52:00,78.0,54.0,30.09,North,355,0.0,1.0,44,0.00,,,0.00,,2013-09-03 18:52:00,
2013-09-03 14:11:00,79.0,55.0,30.09,NE,36,0.0,3.0,43,0.00,,,0.00,,2013-09-03 19:11:00,
2013-09-03 14:22:00,81.0,53.0,30.08,North,360,2.0,4.0,38,0.00,,,0.00,,2013-09-03 19:22:00,
2013-09-03 14:52:00,81.0,54.0,30.07,North,360,0.0,0.0,40,0.00,,,0.00,,2013-09-03 19:52:00,
2013-09-03 15:11:00,82.0,53.0,30.06,North,10,0.0,0.0,37,0.00,,,0.00,,2013-09-03 20:11:00,
2013-09-03 15:22:00,82.0,53.0,30.06,South,181,0.0,0.0,37,0.00,,,0.00,,2013-09-03 20:22:00,
2013-09-03 15:42:00,83.0,55.0,30.05,East,79,0.0,0.0,39,0.00,,,0.00,,2013-09-03 20:42:00,
2013-09-03 15:53:00,83.0,55.0,30.05,NNE,29,0.0,3.0,39,0.00,,,0.00,,2013-09-03 20:53:00,
2013-09-03 16:22:00,84.0,55.0,30.05,SE,146,0.0,0.0,37,0.00,,,0.00,,2013-09-03 21:22:00,
2013-09-03 16:54:00,81.0,59.0,30.04,SSE,163,0.0,0.0,48,0.00,,,0.00,,2013-09-03 21:54:00,
2013-09-03 17:23:00,81.0,53.0,30.04,SSE,163,0.0,2.0,38,0.00,,,0.00,,2013-09-03 22:23:00,
2013-09-03 17:53:00,80.0,54.0,30.04,SSE,163,0.0,0.0,41,0.00,,,0.00,,2013-09-03 22:53:00,
2013-09-03 18:22:00,77.0,57.0,30.04,WNW,294,0.0,0.0,51,0.00,,,0.00,,2013-09-03 23:22:00,
2013-09-03 18:54:00,75.0,59.0,30.04,WNW,294,0.0,0.0,57,0.00,,,0.00,,2013-09-03 23:54:00,
2013-09-03 19:12:00,74.0,58.0,30.04,WNW,294,0.0,0.0,57,0.00,,,0.00,,2013-09-04 00:12:00,
2013-09-03 19:22:00,72.0,58.0,30.04,WNW,294,0.0,0.0,62,0.00,,,0.00,,2013-09-04 00:22:00,
2013-09-03 19:42:00,71.0,59.0,30.04,WNW,294,0.0,0.0,66,0.00,,,0.00,,2013-09-04 00:42:00,
2013-09-03 19:52:00,69.0,59.0,30.04,WNW,294,0.0,0.0,70,0.00,,,0.00,,2013-09-04 00:52:00,
2013-09-03 20:11:00,68.0,59.0,30.05,WNW,294,0.0,0.0,73,0.00,,,0.00,,2013-09-04 01:11:00,
2013-09-03 20:22:00,66.0,58.0,30.05,WNW,294,0.0,0.0,76,0.00,,,0.00,,2013-09-04 01:22:00,
2013-09-03 20:42:00,65.0,58.0,30.06,WNW,294,0.0,0.0,77,0.00,,,0.00,,2013-09-04 01:42:00,
2013-09-03 20:53:00,63.0,57.0,30.06,WNW,294,0.0,0.0,81,0.00,,,0.00,,2013-09-04 01:53:00,
2013-09-03 21:11:00,63.0,57.0,30.06,WNW,294,0.0,0.0,82,0.00,,,0.00,,2013-09-04 02:11:00,
2013-09-03 21:22:00,62.0,57.0,30.06,WNW,294,0.0,0.0,83,0.00,,,0.00,,2013-09-04 02:22:00,
2013-09-03 21:42:00,62.0,57.0,30.06,WNW,294,0.0,0.0,85,0.00,,,0.00,,2013-09-04 02:42:00,
2013-09-03 21:52:00,62.0,57.0,30.07,WNW,294,0.0,0.0,85,0.00,,,0.00,,2013-09-04 02:52:00,
2013-09-03 22:22:00,61.0,57.0,30.07,WNW,294,0.0,0.0,86,0.00,,,0.00,,2013-09-04 03:22:00,
2013-09-03 22:54:00,60.0,56.0,30.07,WNW,294,0.0,0.0,88,0.00,,,0.00,,2013-09-04 03:54:00,
2013-09-03 23:14:00,60.0,56.0,30.07,WNW,294,0.0,0.0,88,0.00,,,0.00,,2013-09-04 04:14:00,
2013-09-03 23:54:00,60.0,57.0,30.08,WNW,294,0.0,0.0,90,0.00,,,0.00,,2013-09-04 04:54:00,